sensor_id;sensor_type;location;lat;lon;timestamp;temperature;humidity
9824;DHT22;4951;50.778;7.196;2024-02-26T00:01:41;6.80;1.00
9824;DHT22;4951;50.778;7.196;2024-02-26T00:04:14;6.70;48.70
9824;DHT22;4951;50.778;7.196;2024-02-26T00:06:46;6.60;99.90
9824;DHT22;4951;50.778;7.196;2024-02-26T00:09:16;6.50;1.00
9824;DHT22;4951;50.778;7.196;2024-02-26T00:11:44;6.50;99.90
9824;DHT22;4951;50.778;7.196;2024-02-26T00:14:31;6.40;1.00
9824;DHT22;4951;50.778;7.196;2024-02-26T00:17:09;6.30;99.90
9824;DHT22;4951;50.778;7.196;2024-02-26T00:19:43;6.30;1.00
9824;DHT22;4951;50.778;7.196;2024-02-26T00:22:22;6.20;99.90
9824;DHT22;4951;50.778;7.196;2024-02-26T00:24:51;6.20;1.00
9824;DHT22;4951;50.778;7.196;2024-02-26T00:27:20;6.20;99.90
9824;DHT22;4951;50.778;7.196;2024-02-26T00:29:50;6.20;1.00
9824;DHT22;4951;50.778;7.196;2024-02-26T00:32:22;6.20;1.00
9824;DHT22;4951;50.778;7.196;2024-02-26T00:34:57;6.20;99.90
9824;DHT22;4951;50.778;7.196;2024-02-26T00:37:25;6.20;1.00
9824;DHT22;4951;50.778;7.196;2024-02-26T00:39:58;6.20;99.90
9824;DHT22;4951;50.778;7.196;2024-02-26T00:42:26;6.20;1.00
9824;DHT22;4951;50.778;7.196;2024-02-26T00:44:54;6.20;1.00
9824;DHT22;4951;50.778;7.196;2024-02-26T00:47:23;6.20;1.00
9824;DHT22;4951;50.778;7.196;2024-02-26T00:49:51;6.20;1.00
9824;DHT22;4951;50.778;7.196;2024-02-26T00:52:40;6.10;1.00
9824;DHT22;4951;50.778;7.196;2024-02-26T00:55:14;6.10;99.90
9824;DHT22;4951;50.778;7.196;2024-02-26T00:57:45;6.00;1.00
9824;DHT22;4951;50.778;7.196;2024-02-26T01:00:15;6.00;99.90
9824;DHT22;4951;50.778;7.196;2024-02-26T01:02:47;6.00;99.90
9824;DHT22;4951;50.778;7.196;2024-02-26T01:05:16;6.00;1.00
9824;DHT22;4951;50.778;7.196;2024-02-26T01:07:48;5.90;1.00
9824;DHT22;4951;50.778;7.196;2024-02-26T01:10:17;5.90;1.00
9824;DHT22;4951;50.778;7.196;2024-02-26T01:12:48;5.90;1.00
9824;DHT22;4951;50.778;7.196;2024-02-26T01:15:17;5.90;94.00
9824;DHT22;4951;50.778;7.196;2024-02-26T01:17:49;5.90;99.90
9824;DHT22;4951;50.778;7.196;2024-02-26T01:20:25;5.90;99.90
9824;DHT22;4951;50.778;7.196;2024-02-26T01:22:59;5.90;99.90
9824;DHT22;4951;50.778;7.196;2024-02-26T01:25:28;5.90;99.90
9824;DHT22;4951;50.778;7.196;2024-02-26T01:27:57;5.90;99.90
9824;DHT22;4951;50.778;7.196;2024-02-26T01:30:24;5.90;1.00
9824;DHT22;4951;50.778;7.196;2024-02-26T01:32:56;5.90;1.00
9824;DHT22;4951;50.778;7.196;2024-02-26T01:35:26;5.90;1.00
9824;DHT22;4951;50.778;7.196;2024-02-26T01:37:56;5.90;1.00
9824;DHT22;4951;50.778;7.196;2024-02-26T01:40:28;5.90;1.00
9824;DHT22;4951;50.778;7.196;2024-02-26T01:42:57;5.90;1.00
9824;DHT22;4951;50.778;7.196;2024-02-26T01:45:25;5.90;1.00
9824;DHT22;4951;50.778;7.196;2024-02-26T01:47:55;5.90;1.00
9824;DHT22;4951;50.778;7.196;2024-02-26T01:50:29;5.90;1.00
9824;DHT22;4951;50.778;7.196;2024-02-26T01:52:59;5.90;1.00
9824;DHT22;4951;50.778;7.196;2024-02-26T01:55:31;5.90;1.00
9824;DHT22;4951;50.778;7.196;2024-02-26T01:58:01;5.90;1.00
9824;DHT22;4951;50.778;7.196;2024-02-26T02:00:37;5.80;10.50
9824;DHT22;4951;50.778;7.196;2024-02-26T02:03:25;5.80;34.10
9824;DHT22;4951;50.778;7.196;2024-02-26T02:06:10;5.80;99.90
9824;DHT22;4951;50.778;7.196;2024-02-26T02:08:57;5.80;99.90
9824;DHT22;4951;50.778;7.196;2024-02-26T02:11:48;5.80;99.90
9824;DHT22;4951;50.778;7.196;2024-02-26T02:14:25;5.80;99.90
9824;DHT22;4951;50.778;7.196;2024-02-26T02:17:12;5.80;99.90
9824;DHT22;4951;50.778;7.196;2024-02-26T02:19:59;5.90;99.90
9824;DHT22;4951;50.778;7.196;2024-02-26T02:22:37;5.90;99.90
9824;DHT22;4951;50.778;7.196;2024-02-26T02:25:19;5.90;99.90
9824;DHT22;4951;50.778;7.196;2024-02-26T02:27:54;5.90;99.90
9824;DHT22;4951;50.778;7.196;2024-02-26T02:30:29;5.90;99.90
9824;DHT22;4951;50.778;7.196;2024-02-26T02:33:03;5.90;99.90
9824;DHT22;4951;50.778;7.196;2024-02-26T02:35:51;5.90;99.90
9824;DHT22;4951;50.778;7.196;2024-02-26T02:38:26;5.90;99.90
9824;DHT22;4951;50.778;7.196;2024-02-26T02:41:13;5.80;99.90
9824;DHT22;4951;50.778;7.196;2024-02-26T02:43:50;5.80;99.90
9824;DHT22;4951;50.778;7.196;2024-02-26T02:46:37;5.80;99.90
9824;DHT22;4951;50.778;7.196;2024-02-26T02:49:25;5.80;99.90
9824;DHT22;4951;50.778;7.196;2024-02-26T02:52:12;5.80;99.90
9824;DHT22;4951;50.778;7.196;2024-02-26T02:55:01;5.80;99.90
9824;DHT22;4951;50.778;7.196;2024-02-26T02:57:31;5.80;99.90
9824;DHT22;4951;50.778;7.196;2024-02-26T03:00:09;5.80;99.90
9824;DHT22;4951;50.778;7.196;2024-02-26T03:02:56;5.80;99.90
9824;DHT22;4951;50.778;7.196;2024-02-26T03:05:43;5.80;99.90
9824;DHT22;4951;50.778;7.196;2024-02-26T03:08:31;5.80;1.00
9824;DHT22;4951;50.778;7.196;2024-02-26T03:11:23;5.80;1.00
9824;DHT22;4951;50.778;7.196;2024-02-26T03:14:12;5.80;1.00
9824;DHT22;4951;50.778;7.196;2024-02-26T03:16:59;5.80;1.00
9824;DHT22;4951;50.778;7.196;2024-02-26T03:19:46;5.80;1.00
9824;DHT22;4951;50.778;7.196;2024-02-26T03:22:21;5.80;1.00
9824;DHT22;4951;50.778;7.196;2024-02-26T03:24:57;5.80;1.00
9824;DHT22;4951;50.778;7.196;2024-02-26T03:27:32;5.70;1.00
9824;DHT22;4951;50.778;7.196;2024-02-26T03:30:09;5.80;1.00
9824;DHT22;4951;50.778;7.196;2024-02-26T03:32:56;5.70;1.00
9824;DHT22;4951;50.778;7.196;2024-02-26T03:35:40;5.70;1.00
9824;DHT22;4951;50.778;7.196;2024-02-26T03:38:17;5.70;1.00
9824;DHT22;4951;50.778;7.196;2024-02-26T03:40:54;5.70;1.00
9824;DHT22;4951;50.778;7.196;2024-02-26T03:43:36;5.70;1.00
9824;DHT22;4951;50.778;7.196;2024-02-26T03:46:12;5.70;1.00
9824;DHT22;4951;50.778;7.196;2024-02-26T03:48:56;5.70;1.00
9824;DHT22;4951;50.778;7.196;2024-02-26T03:51:32;5.60;1.00
9824;DHT22;4951;50.778;7.196;2024-02-26T03:54:13;5.60;1.00
9824;DHT22;4951;50.778;7.196;2024-02-26T03:56:59;5.60;1.00
9824;DHT22;4951;50.778;7.196;2024-02-26T03:59:36;5.60;1.00
9824;DHT22;4951;50.778;7.196;2024-02-26T04:02:14;5.50;1.00
9824;DHT22;4951;50.778;7.196;2024-02-26T04:04:51;5.50;1.00
9824;DHT22;4951;50.778;7.196;2024-02-26T04:07:25;5.50;1.00
9824;DHT22;4951;50.778;7.196;2024-02-26T04:09:55;5.50;1.00
9824;DHT22;4951;50.778;7.196;2024-02-26T04:12:29;5.50;1.00
9824;DHT22;4951;50.778;7.196;2024-02-26T04:15:10;5.50;1.00
9824;DHT22;4951;50.778;7.196;2024-02-26T04:17:57;5.50;1.00
9824;DHT22;4951;50.778;7.196;2024-02-26T04:20:45;5.40;1.00
9824;DHT22;4951;50.778;7.196;2024-02-26T04:23:32;5.40;1.00
9824;DHT22;4951;50.778;7.196;2024-02-26T04:26:02;5.40;1.00
9824;DHT22;4951;50.778;7.196;2024-02-26T04:28:50;5.40;1.00
9824;DHT22;4951;50.778;7.196;2024-02-26T04:31:39;5.40;1.00
9824;DHT22;4951;50.778;7.196;2024-02-26T04:34:28;5.40;1.00
9824;DHT22;4951;50.778;7.196;2024-02-26T04:37:15;5.40;1.00
9824;DHT22;4951;50.778;7.196;2024-02-26T04:39:49;5.40;1.00
9824;DHT22;4951;50.778;7.196;2024-02-26T04:42:36;5.40;1.00
9824;DHT22;4951;50.778;7.196;2024-02-26T04:45:10;5.40;1.00
9824;DHT22;4951;50.778;7.196;2024-02-26T04:47:59;5.40;1.00
9824;DHT22;4951;50.778;7.196;2024-02-26T04:50:31;5.40;1.00
9824;DHT22;4951;50.778;7.196;2024-02-26T04:53:01;5.40;1.00
9824;DHT22;4951;50.778;7.196;2024-02-26T04:55:41;5.40;1.00
9824;DHT22;4951;50.778;7.196;2024-02-26T04:58:16;5.40;1.00
9824;DHT22;4951;50.778;7.196;2024-02-26T05:00:46;5.40;1.00
9824;DHT22;4951;50.778;7.196;2024-02-26T05:03:35;5.40;1.00
9824;DHT22;4951;50.778;7.196;2024-02-26T05:06:22;5.40;1.00
9824;DHT22;4951;50.778;7.196;2024-02-26T05:09:03;5.40;1.00
9824;DHT22;4951;50.778;7.196;2024-02-26T05:11:48;5.40;1.00
9824;DHT22;4951;50.778;7.196;2024-02-26T05:14:22;5.40;1.00
9824;DHT22;4951;50.778;7.196;2024-02-26T05:16:55;5.40;1.00
9824;DHT22;4951;50.778;7.196;2024-02-26T05:19:24;5.40;1.00
9824;DHT22;4951;50.778;7.196;2024-02-26T05:21:52;5.40;1.00
9824;DHT22;4951;50.778;7.196;2024-02-26T05:24:20;5.40;1.00
9824;DHT22;4951;50.778;7.196;2024-02-26T05:26:53;5.40;1.00
9824;DHT22;4951;50.778;7.196;2024-02-26T05:29:25;5.40;1.00
9824;DHT22;4951;50.778;7.196;2024-02-26T05:32:01;5.40;1.00
9824;DHT22;4951;50.778;7.196;2024-02-26T05:34:36;5.40;1.00
9824;DHT22;4951;50.778;7.196;2024-02-26T05:37:12;5.40;1.00
9824;DHT22;4951;50.778;7.196;2024-02-26T05:39:59;5.40;1.00
9824;DHT22;4951;50.778;7.196;2024-02-26T05:42:46;5.40;1.00
9824;DHT22;4951;50.778;7.196;2024-02-26T05:45:30;5.40;1.00
9824;DHT22;4951;50.778;7.196;2024-02-26T05:48:00;5.40;1.00
9824;DHT22;4951;50.778;7.196;2024-02-26T05:50:30;5.40;1.00
9824;DHT22;4951;50.778;7.196;2024-02-26T05:53:01;5.40;1.00
9824;DHT22;4951;50.778;7.196;2024-02-26T05:55:41;5.40;1.00
9824;DHT22;4951;50.778;7.196;2024-02-26T05:58:27;5.40;1.00
9824;DHT22;4951;50.778;7.196;2024-02-26T06:00:56;5.40;1.00
9824;DHT22;4951;50.778;7.196;2024-02-26T06:03:44;5.40;1.00
9824;DHT22;4951;50.778;7.196;2024-02-26T06:06:19;5.40;1.00
9824;DHT22;4951;50.778;7.196;2024-02-26T06:08:52;5.40;1.00
9824;DHT22;4951;50.778;7.196;2024-02-26T06:11:32;5.40;1.00
9824;DHT22;4951;50.778;7.196;2024-02-26T06:14:01;5.40;1.00
9824;DHT22;4951;50.778;7.196;2024-02-26T06:16:32;5.40;1.00
9824;DHT22;4951;50.778;7.196;2024-02-26T06:19:01;5.40;1.00
9824;DHT22;4951;50.778;7.196;2024-02-26T06:21:33;5.40;1.00
9824;DHT22;4951;50.778;7.196;2024-02-26T06:24:01;5.40;1.00
9824;DHT22;4951;50.778;7.196;2024-02-26T06:26:30;5.40;5.40
9824;DHT22;4951;50.778;7.196;2024-02-26T06:29:01;5.40;10.10
9824;DHT22;4951;50.778;7.196;2024-02-26T06:31:34;5.40;14.70
9824;DHT22;4951;50.778;7.196;2024-02-26T06:34:04;5.40;15.80
9824;DHT22;4951;50.778;7.196;2024-02-26T06:36:41;5.40;15.80
9824;DHT22;4951;50.778;7.196;2024-02-26T06:39:10;5.40;17.30
9824;DHT22;4951;50.778;7.196;2024-02-26T06:41:39;5.40;20.30
9824;DHT22;4951;50.778;7.196;2024-02-26T06:44:11;5.40;24.40
9824;DHT22;4951;50.778;7.196;2024-02-26T06:46:42;5.40;26.00
9824;DHT22;4951;50.778;7.196;2024-02-26T06:49:12;5.40;29.00
9824;DHT22;4951;50.778;7.196;2024-02-26T06:51:41;5.40;33.30
9824;DHT22;4951;50.778;7.196;2024-02-26T06:54:17;5.40;35.30
9824;DHT22;4951;50.778;7.196;2024-02-26T06:56:49;5.40;39.60
9824;DHT22;4951;50.778;7.196;2024-02-26T06:59:17;5.40;45.40
9824;DHT22;4951;50.778;7.196;2024-02-26T07:01:48;5.40;51.30
9824;DHT22;4951;50.778;7.196;2024-02-26T07:04:22;5.40;51.50
9824;DHT22;4951;50.778;7.196;2024-02-26T07:07:01;5.40;50.60
9824;DHT22;4951;50.778;7.196;2024-02-26T07:09:41;5.40;51.90
9824;DHT22;4951;50.778;7.196;2024-02-26T07:12:13;5.40;54.40
9824;DHT22;4951;50.778;7.196;2024-02-26T07:14:49;5.40;54.80
9824;DHT22;4951;50.778;7.196;2024-02-26T07:17:24;5.40;58.00
9824;DHT22;4951;50.778;7.196;2024-02-26T07:19:55;5.40;61.60
9824;DHT22;4951;50.778;7.196;2024-02-26T07:22:44;5.40;63.50
9824;DHT22;4951;50.778;7.196;2024-02-26T07:25:28;5.40;67.00
9824;DHT22;4951;50.778;7.196;2024-02-26T07:28:03;5.40;68.60
9824;DHT22;4951;50.778;7.196;2024-02-26T07:30:36;5.40;70.10
9824;DHT22;4951;50.778;7.196;2024-02-26T07:33:11;5.40;77.70
9824;DHT22;4951;50.778;7.196;2024-02-26T07:35:50;5.40;80.10
9824;DHT22;4951;50.778;7.196;2024-02-26T07:38:24;5.40;82.70
9824;DHT22;4951;50.778;7.196;2024-02-26T07:41:12;5.40;85.50
9824;DHT22;4951;50.778;7.196;2024-02-26T07:43:43;5.40;89.20
9824;DHT22;4951;50.778;7.196;2024-02-26T07:46:13;5.40;90.00
9824;DHT22;4951;50.778;7.196;2024-02-26T07:48:49;5.40;91.00
9824;DHT22;4951;50.778;7.196;2024-02-26T07:51:26;5.40;92.30
9824;DHT22;4951;50.778;7.196;2024-02-26T07:53:58;5.40;93.60
9824;DHT22;4951;50.778;7.196;2024-02-26T07:56:32;5.40;94.10
9824;DHT22;4951;50.778;7.196;2024-02-26T07:59:06;5.30;95.10
9824;DHT22;4951;50.778;7.196;2024-02-26T08:01:55;5.40;95.00
9824;DHT22;4951;50.778;7.196;2024-02-26T08:04:26;5.40;96.30
9824;DHT22;4951;50.778;7.196;2024-02-26T08:07:13;5.40;97.90
9824;DHT22;4951;50.778;7.196;2024-02-26T08:09:43;5.40;98.70
9824;DHT22;4951;50.778;7.196;2024-02-26T08:12:14;5.40;98.40
9824;DHT22;4951;50.778;7.196;2024-02-26T08:14:49;5.40;98.70
9824;DHT22;4951;50.778;7.196;2024-02-26T08:17:19;5.40;98.50
9824;DHT22;4951;50.778;7.196;2024-02-26T08:19:47;5.40;99.00
9824;DHT22;4951;50.778;7.196;2024-02-26T08:22:19;5.40;99.50
9824;DHT22;4951;50.778;7.196;2024-02-26T08:24:57;5.40;99.90
9824;DHT22;4951;50.778;7.196;2024-02-26T08:27:44;5.40;99.90
9824;DHT22;4951;50.778;7.196;2024-02-26T08:30:16;5.40;99.90
9824;DHT22;4951;50.778;7.196;2024-02-26T08:32:48;5.40;99.90
9824;DHT22;4951;50.778;7.196;2024-02-26T08:35:22;5.40;99.90
9824;DHT22;4951;50.778;7.196;2024-02-26T08:37:52;5.40;99.90
9824;DHT22;4951;50.778;7.196;2024-02-26T08:40:29;5.40;99.90
9824;DHT22;4951;50.778;7.196;2024-02-26T08:43:02;5.40;99.90
9824;DHT22;4951;50.778;7.196;2024-02-26T08:45:35;5.40;99.90
9824;DHT22;4951;50.778;7.196;2024-02-26T08:48:23;5.40;99.90
9824;DHT22;4951;50.778;7.196;2024-02-26T08:50:55;5.40;99.90
9824;DHT22;4951;50.778;7.196;2024-02-26T08:53:39;5.40;99.90
9824;DHT22;4951;50.778;7.196;2024-02-26T08:56:17;5.40;99.90
9824;DHT22;4951;50.778;7.196;2024-02-26T08:58:47;5.40;99.90
9824;DHT22;4951;50.778;7.196;2024-02-26T09:01:21;5.40;99.90
9824;DHT22;4951;50.778;7.196;2024-02-26T09:03:52;5.40;99.90
9824;DHT22;4951;50.778;7.196;2024-02-26T09:06:20;5.40;99.90
9824;DHT22;4951;50.778;7.196;2024-02-26T09:08:50;5.40;99.90
9824;DHT22;4951;50.778;7.196;2024-02-26T09:11:21;5.40;99.90
9824;DHT22;4951;50.778;7.196;2024-02-26T09:13:50;5.40;99.90
9824;DHT22;4951;50.778;7.196;2024-02-26T09:16:18;5.40;99.90
9824;DHT22;4951;50.778;7.196;2024-02-26T09:18:46;5.40;99.90
9824;DHT22;4951;50.778;7.196;2024-02-26T09:21:15;5.40;99.90
9824;DHT22;4951;50.778;7.196;2024-02-26T09:23:49;5.50;99.90
9824;DHT22;4951;50.778;7.196;2024-02-26T09:26:17;5.50;99.90
9824;DHT22;4951;50.778;7.196;2024-02-26T09:28:47;5.50;99.90
9824;DHT22;4951;50.778;7.196;2024-02-26T09:31:17;5.50;99.90
9824;DHT22;4951;50.778;7.196;2024-02-26T09:33:54;5.50;99.90
9824;DHT22;4951;50.778;7.196;2024-02-26T09:36:23;5.50;99.90
9824;DHT22;4951;50.778;7.196;2024-02-26T09:38:52;5.50;99.90
9824;DHT22;4951;50.778;7.196;2024-02-26T09:41:21;5.50;99.90
9824;DHT22;4951;50.778;7.196;2024-02-26T09:43:57;5.50;99.90
9824;DHT22;4951;50.778;7.196;2024-02-26T09:46:28;5.50;99.90
9824;DHT22;4951;50.778;7.196;2024-02-26T09:49:01;5.60;99.90
9824;DHT22;4951;50.778;7.196;2024-02-26T09:51:34;5.60;99.90
9824;DHT22;4951;50.778;7.196;2024-02-26T09:54:09;5.60;99.90
9824;DHT22;4951;50.778;7.196;2024-02-26T09:56:54;5.60;99.90
9824;DHT22;4951;50.778;7.196;2024-02-26T09:59:34;5.70;99.90
9824;DHT22;4951;50.778;7.196;2024-02-26T10:02:22;5.70;99.90
9824;DHT22;4951;50.778;7.196;2024-02-26T10:04:57;5.80;99.90
9824;DHT22;4951;50.778;7.196;2024-02-26T10:07:47;5.80;99.90
9824;DHT22;4951;50.778;7.196;2024-02-26T10:10:22;5.90;99.90
9824;DHT22;4951;50.778;7.196;2024-02-26T10:13:10;5.90;99.90
9824;DHT22;4951;50.778;7.196;2024-02-26T10:15:47;6.00;99.90
9824;DHT22;4951;50.778;7.196;2024-02-26T10:18:18;6.00;99.90
9824;DHT22;4951;50.778;7.196;2024-02-26T10:21:04;6.10;99.90
9824;DHT22;4951;50.778;7.196;2024-02-26T10:23:42;6.10;99.90
9824;DHT22;4951;50.778;7.196;2024-02-26T10:26:16;6.10;99.90
9824;DHT22;4951;50.778;7.196;2024-02-26T10:28:47;6.20;99.90
9824;DHT22;4951;50.778;7.196;2024-02-26T10:31:17;6.20;99.90
9824;DHT22;4951;50.778;7.196;2024-02-26T10:33:55;6.30;99.90
9824;DHT22;4951;50.778;7.196;2024-02-26T10:36:29;6.40;99.90
9824;DHT22;4951;50.778;7.196;2024-02-26T10:39:01;6.50;99.90
9824;DHT22;4951;50.778;7.196;2024-02-26T10:41:41;6.60;99.90
9824;DHT22;4951;50.778;7.196;2024-02-26T10:44:28;6.70;99.90
9824;DHT22;4951;50.778;7.196;2024-02-26T10:47:03;6.70;99.90
9824;DHT22;4951;50.778;7.196;2024-02-26T10:49:36;6.70;99.90
9824;DHT22;4951;50.778;7.196;2024-02-26T10:52:12;6.70;95.10
9824;DHT22;4951;50.778;7.196;2024-02-26T10:54:42;6.70;88.80
9824;DHT22;4951;50.778;7.196;2024-02-26T10:57:15;6.70;71.40
9824;DHT22;4951;50.778;7.196;2024-02-26T10:59:46;6.70;61.20
9824;DHT22;4951;50.778;7.196;2024-02-26T11:02:23;6.70;55.50
9824;DHT22;4951;50.778;7.196;2024-02-26T11:04:54;6.70;53.80
9824;DHT22;4951;50.778;7.196;2024-02-26T11:07:25;6.70;52.20
9824;DHT22;4951;50.778;7.196;2024-02-26T11:09:59;6.70;46.90
9824;DHT22;4951;50.778;7.196;2024-02-26T11:12:32;6.80;40.30
9824;DHT22;4951;50.778;7.196;2024-02-26T11:15:11;6.70;32.90
9824;DHT22;4951;50.778;7.196;2024-02-26T11:17:46;6.70;28.50
9824;DHT22;4951;50.778;7.196;2024-02-26T11:20:17;6.70;27.50
9824;DHT22;4951;50.778;7.196;2024-02-26T11:22:49;6.70;25.10
9824;DHT22;4951;50.778;7.196;2024-02-26T11:25:18;6.70;24.80
9824;DHT22;4951;50.778;7.196;2024-02-26T11:27:50;6.80;23.90
9824;DHT22;4951;50.778;7.196;2024-02-26T11:30:22;6.80;24.20
9824;DHT22;4951;50.778;7.196;2024-02-26T11:32:54;6.80;21.50
9824;DHT22;4951;50.778;7.196;2024-02-26T11:35:23;6.80;20.40
9824;DHT22;4951;50.778;7.196;2024-02-26T11:38:17;6.80;20.70
9824;DHT22;4951;50.778;7.196;2024-02-26T11:40:53;6.80;22.40
9824;DHT22;4951;50.778;7.196;2024-02-26T11:43:53;6.80;24.80
9824;DHT22;4951;50.778;7.196;2024-02-26T11:46:26;6.90;25.60
9824;DHT22;4951;50.778;7.196;2024-02-26T11:49:03;6.90;28.40
9824;DHT22;4951;50.778;7.196;2024-02-26T11:51:34;7.00;29.30
9824;DHT22;4951;50.778;7.196;2024-02-26T11:54:03;7.00;31.80
9824;DHT22;4951;50.778;7.196;2024-02-26T11:56:34;7.10;28.50
9824;DHT22;4951;50.778;7.196;2024-02-26T11:59:10;7.10;28.90
9824;DHT22;4951;50.778;7.196;2024-02-26T12:01:45;7.10;27.70
9824;DHT22;4951;50.778;7.196;2024-02-26T12:04:25;7.10;24.50
9824;DHT22;4951;50.778;7.196;2024-02-26T12:07:03;7.20;22.00
9824;DHT22;4951;50.778;7.196;2024-02-26T12:09:51;7.20;22.90
9824;DHT22;4951;50.778;7.196;2024-02-26T12:12:39;7.20;24.00
9824;DHT22;4951;50.778;7.196;2024-02-26T12:15:23;7.20;20.40
9824;DHT22;4951;50.778;7.196;2024-02-26T12:17:56;7.20;17.60
9824;DHT22;4951;50.778;7.196;2024-02-26T12:20:31;7.20;19.30
9824;DHT22;4951;50.778;7.196;2024-02-26T12:23:02;7.20;20.70
9824;DHT22;4951;50.778;7.196;2024-02-26T12:25:33;7.20;16.70
9824;DHT22;4951;50.778;7.196;2024-02-26T12:28:07;7.20;18.50
9824;DHT22;4951;50.778;7.196;2024-02-26T12:30:36;7.30;20.10
9824;DHT22;4951;50.778;7.196;2024-02-26T12:33:07;7.30;20.20
9824;DHT22;4951;50.778;7.196;2024-02-26T12:35:42;7.30;16.60
9824;DHT22;4951;50.778;7.196;2024-02-26T12:38:18;7.30;20.70
9824;DHT22;4951;50.778;7.196;2024-02-26T12:40:47;7.30;24.70
9824;DHT22;4951;50.778;7.196;2024-02-26T12:43:21;7.30;25.30
9824;DHT22;4951;50.778;7.196;2024-02-26T12:45:50;7.30;30.00
9824;DHT22;4951;50.778;7.196;2024-02-26T12:48:21;7.40;39.10
9824;DHT22;4951;50.778;7.196;2024-02-26T12:50:54;7.40;46.30
9824;DHT22;4951;50.778;7.196;2024-02-26T12:53:28;7.40;46.60
9824;DHT22;4951;50.778;7.196;2024-02-26T12:56:03;7.40;51.60
9824;DHT22;4951;50.778;7.196;2024-02-26T12:58:37;7.50;52.60
9824;DHT22;4951;50.778;7.196;2024-02-26T13:01:25;7.50;53.00
9824;DHT22;4951;50.778;7.196;2024-02-26T13:04:01;7.50;50.80
9824;DHT22;4951;50.778;7.196;2024-02-26T13:06:50;7.40;53.00
9824;DHT22;4951;50.778;7.196;2024-02-26T13:09:27;7.50;52.60
9824;DHT22;4951;50.778;7.196;2024-02-26T13:11:58;7.50;55.20
9824;DHT22;4951;50.778;7.196;2024-02-26T13:14:32;7.50;55.40
9824;DHT22;4951;50.778;7.196;2024-02-26T13:17:10;7.50;51.00
9824;DHT22;4951;50.778;7.196;2024-02-26T13:19:49;7.50;47.70
9824;DHT22;4951;50.778;7.196;2024-02-26T13:22:31;7.40;45.10
9824;DHT22;4951;50.778;7.196;2024-02-26T13:25:00;7.40;48.40
9824;DHT22;4951;50.778;7.196;2024-02-26T13:27:32;7.40;55.20
9824;DHT22;4951;50.778;7.196;2024-02-26T13:30:09;7.40;67.20
9824;DHT22;4951;50.778;7.196;2024-02-26T13:32:40;7.40;76.40
9824;DHT22;4951;50.778;7.196;2024-02-26T13:35:12;7.40;80.90
9824;DHT22;4951;50.778;7.196;2024-02-26T13:37:46;7.40;87.50
9824;DHT22;4951;50.778;7.196;2024-02-26T13:40:30;7.50;90.40
9824;DHT22;4951;50.778;7.196;2024-02-26T13:42:58;7.50;94.00
9824;DHT22;4951;50.778;7.196;2024-02-26T13:45:28;7.50;95.30
9824;DHT22;4951;50.778;7.196;2024-02-26T13:48:09;7.50;97.20
9824;DHT22;4951;50.778;7.196;2024-02-26T13:50:40;7.50;99.90
9824;DHT22;4951;50.778;7.196;2024-02-26T13:53:13;7.50;99.90
9824;DHT22;4951;50.778;7.196;2024-02-26T13:55:42;7.50;99.90
9824;DHT22;4951;50.778;7.196;2024-02-26T13:58:12;7.60;99.90
9824;DHT22;4951;50.778;7.196;2024-02-26T14:00:45;7.60;99.90
9824;DHT22;4951;50.778;7.196;2024-02-26T14:03:19;7.60;99.90
9824;DHT22;4951;50.778;7.196;2024-02-26T14:05:50;7.70;99.90
9824;DHT22;4951;50.778;7.196;2024-02-26T14:08:27;7.70;99.90
9824;DHT22;4951;50.778;7.196;2024-02-26T14:11:00;7.70;99.90
9824;DHT22;4951;50.778;7.196;2024-02-26T14:13:33;7.60;99.90
9824;DHT22;4951;50.778;7.196;2024-02-26T14:16:06;7.60;99.90
9824;DHT22;4951;50.778;7.196;2024-02-26T14:18:51;7.60;99.90
9824;DHT22;4951;50.778;7.196;2024-02-26T14:21:26;7.50;99.90
9824;DHT22;4951;50.778;7.196;2024-02-26T14:24:02;7.50;99.90
9824;DHT22;4951;50.778;7.196;2024-02-26T14:26:34;7.50;99.90
9824;DHT22;4951;50.778;7.196;2024-02-26T14:29:03;7.50;99.90
9824;DHT22;4951;50.778;7.196;2024-02-26T14:31:39;7.60;99.90
9824;DHT22;4951;50.778;7.196;2024-02-26T14:34:09;7.60;99.90
9824;DHT22;4951;50.778;7.196;2024-02-26T14:36:53;7.60;99.90
9824;DHT22;4951;50.778;7.196;2024-02-26T14:39:33;7.70;99.90
9824;DHT22;4951;50.778;7.196;2024-02-26T14:42:04;7.70;99.90
9824;DHT22;4951;50.778;7.196;2024-02-26T14:44:36;7.80;99.90
9824;DHT22;4951;50.778;7.196;2024-02-26T14:47:13;7.80;99.90
9824;DHT22;4951;50.778;7.196;2024-02-26T14:49:49;7.80;99.90
9824;DHT22;4951;50.778;7.196;2024-02-26T14:52:26;7.70;99.90
9824;DHT22;4951;50.778;7.196;2024-02-26T14:55:04;7.70;99.90
9824;DHT22;4951;50.778;7.196;2024-02-26T14:57:52;7.70;99.90
9824;DHT22;4951;50.778;7.196;2024-02-26T15:00:29;7.70;99.90
9824;DHT22;4951;50.778;7.196;2024-02-26T15:03:17;7.70;99.90
9824;DHT22;4951;50.778;7.196;2024-02-26T15:06:02;7.70;99.90
9824;DHT22;4951;50.778;7.196;2024-02-26T15:08:38;7.70;99.90
9824;DHT22;4951;50.778;7.196;2024-02-26T15:11:15;7.70;99.90
9824;DHT22;4951;50.778;7.196;2024-02-26T15:13:48;7.70;99.90
9824;DHT22;4951;50.778;7.196;2024-02-26T15:16:20;7.70;99.90
9824;DHT22;4951;50.778;7.196;2024-02-26T15:18:50;7.80;99.90
9824;DHT22;4951;50.778;7.196;2024-02-26T15:21:21;7.70;99.90
9824;DHT22;4951;50.778;7.196;2024-02-26T15:23:51;7.80;99.90
9824;DHT22;4951;50.778;7.196;2024-02-26T15:26:23;7.80;99.90
9824;DHT22;4951;50.778;7.196;2024-02-26T15:28:52;7.80;99.90
9824;DHT22;4951;50.778;7.196;2024-02-26T15:31:21;7.70;99.90
9824;DHT22;4951;50.778;7.196;2024-02-26T15:33:53;7.80;99.90
9824;DHT22;4951;50.778;7.196;2024-02-26T15:36:23;7.70;99.90
9824;DHT22;4951;50.778;7.196;2024-02-26T15:38:59;7.80;99.90
9824;DHT22;4951;50.778;7.196;2024-02-26T15:41:33;7.70;99.90
9824;DHT22;4951;50.778;7.196;2024-02-26T15:44:07;7.80;99.90
9824;DHT22;4951;50.778;7.196;2024-02-26T15:46:40;7.80;99.90
9824;DHT22;4951;50.778;7.196;2024-02-26T15:49:11;7.80;99.90
9824;DHT22;4951;50.778;7.196;2024-02-26T15:51:49;7.80;99.90
9824;DHT22;4951;50.778;7.196;2024-02-26T15:54:19;7.90;99.90
9824;DHT22;4951;50.778;7.196;2024-02-26T15:56:49;7.90;99.90
9824;DHT22;4951;50.778;7.196;2024-02-26T15:59:23;7.90;99.40
9824;DHT22;4951;50.778;7.196;2024-02-26T16:01:53;7.90;95.90
9824;DHT22;4951;50.778;7.196;2024-02-26T16:04:25;8.00;91.10
9824;DHT22;4951;50.778;7.196;2024-02-26T16:06:59;7.90;84.10
9824;DHT22;4951;50.778;7.196;2024-02-26T16:09:35;7.90;77.70
9824;DHT22;4951;50.778;7.196;2024-02-26T16:12:10;7.90;72.10
9824;DHT22;4951;50.778;7.196;2024-02-26T16:14:57;7.90;66.20
9824;DHT22;4951;50.778;7.196;2024-02-26T16:17:38;7.90;62.50
9824;DHT22;4951;50.778;7.196;2024-02-26T16:20:19;7.90;60.30
9824;DHT22;4951;50.778;7.196;2024-02-26T16:23:07;7.90;58.80
9824;DHT22;4951;50.778;7.196;2024-02-26T16:25:38;7.80;58.00
9824;DHT22;4951;50.778;7.196;2024-02-26T16:28:18;7.80;56.10
9824;DHT22;4951;50.778;7.196;2024-02-26T16:30:49;7.70;56.10
9824;DHT22;4951;50.778;7.196;2024-02-26T16:33:20;7.70;53.80
9824;DHT22;4951;50.778;7.196;2024-02-26T16:35:53;7.70;55.20
9824;DHT22;4951;50.778;7.196;2024-02-26T16:38:22;7.70;56.00
9824;DHT22;4951;50.778;7.196;2024-02-26T16:40:54;7.70;55.90
9824;DHT22;4951;50.778;7.196;2024-02-26T16:43:35;7.70;57.30
9824;DHT22;4951;50.778;7.196;2024-02-26T16:46:06;7.70;54.60
9824;DHT22;4951;50.778;7.196;2024-02-26T16:48:46;7.70;51.90
9824;DHT22;4951;50.778;7.196;2024-02-26T16:51:19;7.60;50.00
9824;DHT22;4951;50.778;7.196;2024-02-26T16:53:51;7.60;50.60
9824;DHT22;4951;50.778;7.196;2024-02-26T16:56:31;7.60;50.50
9824;DHT22;4951;50.778;7.196;2024-02-26T16:59:17;7.60;51.60
9824;DHT22;4951;50.778;7.196;2024-02-26T17:02:04;7.60;52.30
9824;DHT22;4951;50.778;7.196;2024-02-26T17:04:51;7.60;52.10
9824;DHT22;4951;50.778;7.196;2024-02-26T17:07:32;7.50;56.20
9824;DHT22;4951;50.778;7.196;2024-02-26T17:10:19;7.50;59.20
9824;DHT22;4951;50.778;7.196;2024-02-26T17:12:51;7.50;63.00
9824;DHT22;4951;50.778;7.196;2024-02-26T17:15:28;7.50;61.30
9824;DHT22;4951;50.778;7.196;2024-02-26T17:17:56;7.50;62.10